createdAt,value
2022-10-07T00:02:26.870Z,2.38
2022-10-07T00:04:55.814Z,3.25
2022-10-07T00:07:29.979Z,2.08
2022-10-07T00:10:04.308Z,1.98
2022-10-07T00:12:38.395Z,2.00
2022-10-07T00:23:13.783Z,4.20
2022-10-07T00:28:28.124Z,2.42
2022-10-07T00:31:06.339Z,1.75
2022-10-07T00:33:37.816Z,3.47
2022-10-07T00:38:40.858Z,1.55
2022-10-07T00:43:49.138Z,2.15
2022-10-07T01:04:53.528Z,2.03
2022-10-07T01:09:57.115Z,2.40
2022-10-07T01:12:34.551Z,2.70
2022-10-07T01:15:10.265Z,1.88
2022-10-07T01:17:48.249Z,1.92
2022-10-07T01:41:34.710Z,2.30
2022-10-07T01:46:38.977Z,2.35
2022-10-07T02:02:16.390Z,2.20
2022-10-07T02:04:58.081Z,2.13
2022-10-07T02:12:32.694Z,3.15
2022-10-07T02:17:37.647Z,2.13
2022-10-07T02:22:44.680Z,2.47
2022-10-07T02:43:24.660Z,3.22
2022-10-07T02:48:34.394Z,2.75
2022-10-07T02:56:22.174Z,2.17
2022-10-07T03:14:08.666Z,3.53
2022-10-07T03:16:40.668Z,2.65
2022-10-07T03:21:48.683Z,2.47
2022-10-07T03:32:18.751Z,3.22
2022-10-07T03:37:26.778Z,2.80
2022-10-07T03:45:17.720Z,2.53
2022-10-07T03:47:47.723Z,2.60
2022-10-07T04:00:30.751Z,2.92
2022-10-07T04:08:28.716Z,3.45
2022-10-07T04:13:33.784Z,2.80
2022-10-07T04:16:04.829Z,3.47
2022-10-07T04:18:44.159Z,5.47
2022-10-07T04:31:31.331Z,2.85
2022-10-07T04:36:28.916Z,2.53
2022-10-07T04:46:53.905Z,2.53
2022-10-07T04:57:03.869Z,3.28
2022-10-07T05:02:11.138Z,3.00
2022-10-07T05:09:52.857Z,2.80
2022-10-07T05:12:26.984Z,2.75
2022-10-07T05:15:02.672Z,2.20
2022-10-07T05:20:04.938Z,3.72
2022-10-07T05:25:09.986Z,2.33
2022-10-07T05:30:11.950Z,2.67
2022-10-07T05:35:22.857Z,2.70
2022-10-07T05:37:59.869Z,2.20
2022-10-07T05:40:33.871Z,2.58
2022-10-07T05:43:07.710Z,2.38
2022-10-07T05:48:17.258Z,2.13
2022-10-07T05:58:37.904Z,2.35
2022-10-07T06:03:43.923Z,2.40
2022-10-07T06:19:12.919Z,2.93
2022-10-07T06:27:02.845Z,2.05
2022-10-07T06:29:36.703Z,2.42
2022-10-07T06:32:10.712Z,2.03
2022-10-07T06:34:46.154Z,1.58
2022-10-07T06:39:59.341Z,2.20
2022-10-07T06:42:38.905Z,1.98
2022-10-07T06:45:14.204Z,2.10
2022-10-07T06:47:48.257Z,2.10
2022-10-07T06:50:22.389Z,2.63
2022-10-07T06:52:56.269Z,1.75
2022-10-07T06:55:30.107Z,2.58
2022-10-07T06:58:11.779Z,2.63
2022-10-07T07:00:46.564Z,1.95
2022-10-07T07:03:20.427Z,2.70
2022-10-07T07:05:54.899Z,3.13
2022-10-07T07:08:30.318Z,2.22
2022-10-07T07:11:28.390Z,2.22
2022-10-07T07:14:07.613Z,1.95
2022-10-07T07:16:41.800Z,1.60
2022-10-07T07:19:17.201Z,2.33
2022-10-07T07:24:25.446Z,2.05
2022-10-07T07:26:59.286Z,2.13
2022-10-07T07:29:38.481Z,2.55
2022-10-07T07:32:12.456Z,2.00
2022-10-07T07:34:46.779Z,1.60
2022-10-07T07:37:21.134Z,2.15
2022-10-07T07:39:54.991Z,1.92
2022-10-07T07:42:29.219Z,2.30
2022-10-07T07:45:08.422Z,2.28
2022-10-07T07:47:42.456Z,2.17
2022-10-07T07:50:16.573Z,2.25
2022-10-07T07:52:55.212Z,2.55
2022-10-07T07:55:31.060Z,2.10
2022-10-07T07:58:07.374Z,1.88
2022-10-07T08:00:50.478Z,2.40
2022-10-07T08:03:24.344Z,2.60
2022-10-07T08:05:58.219Z,2.53
2022-10-07T08:08:32.088Z,3.60
2022-10-07T08:11:12.844Z,2.72
2022-10-07T08:13:46.875Z,1.95
2022-10-07T08:16:27.102Z,2.03
2022-10-07T08:19:04.732Z,2.17
2022-10-07T08:21:39.024Z,1.90
2022-10-07T08:24:13.458Z,2.28
2022-10-07T08:26:48.474Z,2.27
2022-10-07T08:29:22.521Z,2.10
2022-10-07T08:32:01.651Z,1.70
2022-10-07T08:34:36.073Z,1.77
2022-10-07T08:37:10.022Z,2.17
2022-10-07T08:39:43.871Z,2.05
2022-10-07T08:42:19.505Z,1.70
2022-10-07T08:44:54.336Z,2.45
2022-10-07T08:47:35.711Z,2.20
2022-10-07T08:50:14.018Z,1.90
2022-10-07T08:52:53.587Z,1.77
2022-10-07T08:55:31.505Z,2.15
2022-10-07T08:58:39.103Z,1.70
2022-10-07T09:01:18.740Z,1.67
2022-10-07T09:06:31.983Z,2.25
2022-10-07T09:09:08.723Z,3.42
2022-10-07T09:11:46.371Z,2.00
2022-10-07T09:14:26.592Z,1.70
2022-10-07T09:17:00.642Z,2.13
2022-10-07T09:19:37.267Z,2.05
2022-10-07T09:22:20.423Z,2.00
2022-10-07T09:24:56.152Z,1.73
2022-10-07T09:27:30.766Z,2.17
2022-10-07T09:30:04.564Z,2.83
2022-10-07T09:32:38.411Z,2.15
2022-10-07T09:35:12.850Z,2.20
2022-10-07T09:38:02.668Z,1.77
2022-10-07T09:41:04.328Z,1.70
2022-10-07T09:43:38.214Z,1.98
2022-10-07T09:46:12.263Z,2.53
2022-10-07T09:48:46.756Z,1.52
2022-10-07T09:51:26.498Z,1.70
2022-10-07T09:54:09.506Z,1.58
2022-10-07T09:56:44.971Z,1.90
2022-10-07T09:59:26.788Z,2.85
2022-10-07T10:02:01.687Z,2.13
2022-10-07T10:04:39.084Z,2.10
2022-10-07T10:07:13.622Z,1.80
2022-10-07T10:09:55.408Z,1.80
2022-10-07T10:12:29.799Z,2.17
2022-10-07T10:15:05.721Z,2.20
2022-10-07T10:17:45.147Z,2.08
2022-10-07T10:20:44.575Z,1.80
2022-10-07T10:23:31.841Z,2.00
2022-10-07T10:26:34.447Z,1.70
2022-10-07T10:29:19.295Z,2.13
2022-10-07T10:32:21.296Z,2.23
2022-10-07T10:34:59.208Z,1.95
2022-10-07T10:37:36.561Z,2.35
2022-10-07T10:40:13.982Z,2.10
2022-10-07T10:42:56.872Z,1.98
2022-10-07T10:45:37.783Z,2.40
2022-10-07T10:48:25.329Z,1.80
2022-10-07T10:51:02.288Z,1.92
2022-10-07T10:53:41.694Z,2.13
2022-10-07T10:56:23.007Z,2.00
2022-10-07T10:59:10.418Z,2.38
2022-10-07T11:01:44.966Z,2.10
2022-10-07T11:04:29.472Z,2.08
2022-10-07T11:07:06.074Z,2.70
2022-10-07T11:09:44.340Z,2.20
2022-10-07T11:12:26.550Z,2.00
2022-10-07T11:15:06.942Z,2.20
2022-10-07T11:17:42.270Z,1.73
2022-10-07T11:22:57.775Z,2.50
2022-10-07T11:25:37.968Z,2.10
2022-10-07T11:28:19.429Z,2.03
2022-10-07T11:31:14.747Z,1.80
2022-10-07T11:33:50.682Z,2.40
2022-10-07T11:36:27.293Z,2.20
2022-10-07T11:39:01.629Z,1.80
2022-10-07T11:41:37.424Z,2.42
2022-10-07T11:44:12.050Z,2.33
2022-10-07T11:46:52.196Z,2.10
2022-10-07T11:49:31.456Z,2.25
2022-10-07T11:52:06.851Z,2.10
2022-10-07T11:54:46.779Z,2.15
2022-10-07T11:57:25.977Z,1.90
2022-10-07T12:00:05.842Z,1.80
2022-10-07T12:02:50.795Z,2.10
2022-10-07T12:06:01.000Z,2.15
2022-10-07T12:08:36.800Z,1.77
2022-10-07T12:11:50.954Z,2.35
2022-10-07T12:14:55.295Z,3.22
2022-10-07T12:17:32.396Z,2.30
2022-10-07T12:20:46.518Z,2.33
2022-10-07T12:23:48.348Z,1.98
2022-10-07T12:26:55.657Z,2.10
2022-10-07T12:29:49.570Z,2.08
2022-10-07T12:32:46.295Z,2.10
2022-10-07T12:35:54.769Z,2.22
2022-10-07T12:38:33.438Z,2.60
2022-10-07T12:41:29.566Z,2.60
2022-10-07T12:46:44.973Z,2.60
2022-10-07T12:49:21.141Z,2.30
2022-10-07T12:51:55.132Z,1.80
2022-10-07T12:54:32.099Z,1.98
2022-10-07T12:57:16.778Z,3.25
2022-10-07T12:59:51.632Z,1.75
2022-10-07T13:03:04.871Z,1.67
2022-10-07T13:06:04.093Z,1.75
2022-10-07T13:09:11.113Z,1.80
2022-10-07T13:12:11.066Z,1.75
2022-10-07T13:14:48.631Z,2.25
2022-10-07T13:17:36.415Z,1.95
2022-10-07T13:20:35.617Z,1.98
2022-10-07T13:23:20.098Z,1.40
2022-10-07T13:25:59.513Z,1.95
2022-10-07T13:28:48.387Z,1.60
2022-10-07T13:31:25.042Z,2.20
2022-10-07T13:33:59.306Z,1.77
2022-10-07T13:36:34.099Z,1.88
2022-10-07T13:39:18.113Z,2.03
2022-10-07T13:41:56.446Z,2.05
2022-10-07T13:44:36.520Z,2.20
2022-10-07T13:49:48.197Z,1.60
2022-10-07T13:52:25.378Z,1.58
2022-10-07T13:54:59.453Z,2.55
2022-10-07T13:57:33.892Z,1.52
2022-10-07T14:00:14.215Z,1.27
2022-10-07T14:02:48.496Z,2.00
2022-10-07T14:05:27.111Z,1.83
2022-10-07T14:08:01.818Z,1.95
2022-10-07T14:10:36.143Z,2.20
2022-10-07T14:13:10.816Z,2.07
2022-10-07T14:15:53.844Z,1.88
2022-10-07T14:18:30.590Z,2.10
2022-10-07T14:21:17.948Z,1.85
2022-10-07T14:23:52.540Z,2.40
2022-10-07T14:26:26.372Z,1.95
2022-10-07T14:29:00.336Z,1.55
2022-10-07T14:31:52.619Z,2.13
2022-10-07T14:39:54.253Z,2.20
2022-10-07T14:42:29.678Z,1.90
2022-10-07T14:45:03.800Z,2.03
2022-10-07T14:47:45.284Z,2.25
2022-10-07T14:50:20.686Z,1.92
2022-10-07T14:52:55.265Z,1.90
2022-10-07T14:55:30.152Z,1.85
2022-10-07T14:58:05.102Z,2.45
2022-10-07T15:00:39.904Z,2.65
2022-10-07T15:03:19.262Z,1.55
2022-10-07T15:05:53.242Z,1.60
2022-10-07T15:08:27.834Z,1.77
2022-10-07T15:11:01.818Z,2.15
2022-10-07T15:13:35.726Z,1.92
2022-10-07T15:16:09.722Z,2.10
2022-10-07T15:18:52.452Z,1.90
2022-10-07T15:21:27.231Z,1.80
2022-10-07T15:24:04.203Z,1.50
2022-10-07T15:26:38.015Z,1.88
2022-10-07T15:29:14.304Z,3.05
2022-10-07T15:31:49.044Z,1.30
2022-10-07T15:42:11.067Z,1.75
2022-10-07T15:44:46.082Z,1.90
2022-10-07T15:47:20.109Z,1.48
2022-10-07T15:49:54.101Z,2.05
2022-10-07T15:52:28.715Z,1.92
2022-10-07T15:55:07.619Z,2.58
2022-10-07T15:57:47.390Z,2.45
2022-10-07T16:00:23.074Z,2.45
2022-10-07T16:02:56.961Z,2.10
2022-10-07T16:05:32.363Z,1.90
2022-10-07T16:10:43.746Z,2.38
2022-10-07T16:13:23.769Z,3.50
2022-10-07T16:16:04.832Z,2.38
2022-10-07T16:18:40.201Z,1.80
2022-10-07T16:23:50.670Z,2.20
2022-10-07T16:26:27.926Z,2.45
2022-10-07T16:29:20.877Z,2.55
2022-10-07T16:31:58.636Z,2.20
2022-10-07T16:34:33.644Z,2.53
2022-10-07T16:37:07.521Z,3.60
2022-10-07T16:39:41.462Z,3.38
2022-10-07T16:42:15.630Z,3.58
2022-10-07T16:44:57.902Z,3.20
2022-10-07T16:47:32.174Z,3.22
2022-10-07T16:50:10.910Z,3.08
2022-10-07T16:52:45.484Z,2.67
2022-10-07T16:55:16.885Z,2.67
2022-10-07T16:57:51.316Z,2.45
2022-10-07T17:00:30.863Z,3.20
2022-10-07T17:03:04.704Z,3.58
2022-10-07T17:05:40.358Z,2.50
2022-10-07T17:08:14.208Z,2.45
2022-10-07T17:10:48.142Z,2.60
2022-10-07T17:13:22.853Z,3.05
2022-10-07T17:16:02.455Z,2.30
2022-10-07T17:18:36.438Z,2.45
2022-10-07T17:21:10.457Z,3.38
2022-10-07T17:23:44.292Z,3.90
2022-10-07T17:26:18.242Z,4.50
2022-10-07T17:28:52.221Z,5.65
2022-10-07T17:31:31.938Z,4.65
2022-10-07T17:34:05.946Z,3.75
2022-10-07T17:36:40.309Z,3.83
2022-10-07T17:39:14.495Z,3.33
2022-10-07T17:41:48.547Z,3.15
2022-10-07T17:46:54.088Z,3.33
2022-10-07T17:52:10.074Z,2.70
2022-10-07T17:54:43.980Z,2.83
2022-10-07T17:57:18.394Z,3.63
2022-10-07T18:10:25.766Z,9.85
2022-10-07T18:13:12.679Z,8.25
2022-10-07T18:15:46.683Z,8.85
2022-10-07T18:18:20.640Z,8.95
2022-10-07T18:20:54.551Z,8.18
2022-10-07T18:23:29.695Z,8.00
2022-10-07T18:26:11.095Z,7.43
2022-10-07T18:28:45.146Z,6.63
2022-10-07T18:31:20.200Z,6.32
2022-10-07T18:33:54.210Z,6.00
2022-10-07T18:36:28.820Z,5.22
2022-10-07T18:39:02.740Z,5.03
2022-10-07T18:51:54.944Z,5.10
2022-10-07T18:54:28.872Z,3.83
2022-10-07T18:59:35.320Z,7.00
2022-10-07T19:02:12.399Z,7.38
2022-10-07T19:10:02.215Z,4.80
2022-10-07T19:12:49.141Z,4.18
2022-10-07T19:23:10.079Z,2.92
2022-10-07T19:35:57.066Z,3.58
2022-10-07T19:43:58.164Z,2.78
2022-10-07T19:46:33.593Z,3.58
2022-10-07T19:54:15.276Z,2.60
2022-10-07T19:56:49.199Z,2.70
2022-10-07T19:59:28.562Z,3.55
2022-10-07T20:07:14.982Z,2.92
2022-10-07T20:09:48.914Z,3.00
2022-10-07T20:12:22.797Z,3.72
2022-10-07T20:15:02.120Z,4.88
2022-10-07T20:17:36.256Z,3.05
2022-10-07T20:20:10.635Z,3.17
2022-10-07T20:22:49.232Z,2.95
2022-10-07T20:25:25.358Z,2.20
2022-10-07T20:27:59.403Z,2.70
2022-10-07T20:30:41.644Z,3.00
2022-10-07T20:33:15.730Z,2.33
2022-10-07T20:35:49.580Z,2.63
2022-10-07T20:38:23.497Z,2.60
2022-10-07T20:51:18.222Z,2.30
2022-10-07T20:53:54.690Z,2.58
2022-10-07T20:56:29.583Z,2.67
2022-10-07T20:59:04.426Z,3.05
2022-10-07T21:01:39.116Z,2.60
2022-10-07T21:06:55.556Z,3.15
2022-10-07T21:09:29.443Z,3.92
2022-10-07T21:14:32.108Z,4.10
2022-10-07T21:33:12.295Z,2.53
2022-10-07T21:35:51.279Z,3.35
2022-10-07T21:40:57.276Z,2.92
2022-10-07T21:43:31.222Z,2.30
2022-10-07T21:51:10.010Z,3.15
2022-10-07T21:53:39.284Z,3.28
2022-10-07T21:56:14.168Z,3.30
2022-10-07T22:04:11.328Z,3.35
2022-10-07T22:07:03.813Z,3.03
2022-10-07T22:09:37.739Z,2.85
2022-10-07T22:19:58.252Z,2.53
2022-10-07T22:30:20.657Z,2.50
2022-10-07T22:32:54.562Z,2.70
2022-10-07T22:35:36.232Z,2.53
2022-10-07T22:38:10.128Z,2.03
2022-10-07T22:40:45.437Z,2.38
2022-10-07T22:46:06.415Z,2.42
2022-10-07T22:48:44.055Z,2.40
2022-10-07T22:51:18.717Z,3.60
2022-10-07T22:53:56.180Z,2.58
2022-10-07T22:56:31.153Z,2.15
2022-10-07T22:59:05.665Z,2.15
2022-10-07T23:01:44.928Z,3.17
2022-10-07T23:04:21.241Z,2.33
2022-10-07T23:06:55.217Z,2.65
2022-10-07T23:09:29.108Z,2.92
2022-10-07T23:12:02.907Z,2.30
2022-10-07T23:14:36.713Z,3.88
2022-10-07T23:17:15.848Z,2.33
2022-10-07T23:19:50.050Z,2.38
2022-10-07T23:24:59.001Z,2.42
2022-10-07T23:27:32.840Z,2.30
2022-10-07T23:30:06.683Z,3.55
2022-10-07T23:32:46.856Z,2.53
2022-10-07T23:35:20.960Z,2.33
2022-10-07T23:37:55.139Z,2.78
2022-10-07T23:40:29.029Z,3.05
2022-10-07T23:48:03.327Z,3.20
2022-10-07T23:50:42.595Z,4.28
2022-10-07T23:53:16.477Z,2.47
2022-10-07T23:55:54.118Z,1.98
2022-10-07T23:58:28.973Z,1.90
